Latest Coastal Weather Observations for Eucla

IDW60701

Issued at 8:12 am WST Tuesday 31 March 2015 (issued every 10 minutes, with the page automatically refreshed every 10 minutes)

About coastal observations | Map of coastal stations | Coastal observations for WA | Marine services | Other Formats
Station Details ID: 011003 Name: EUCLA Lat: -31.68 Lon: 128.90 Height: 93.1 m
Data from the previous 72 hours. | See also: Recent months at Eucla
Date/Time
WST
Temp

°C
Wind Pressure Rain
since 9am
mm
Weather Cloud Vis
km
Sea
Height
m
Swell
Dir
 
Speed
knots
Gust
knots
hPa Trend Height
m
Period
s
Dir
31/08:00am 20.5 NE 6 8 1017.1 - 0.2 - - - - - - -
31/07:30am 20.0 ENE 5 7 1017.0 - 0.2 - - - - - - -
31/07:00am 19.7 ENE 6 8 1017.1 - 0.2 - - - - - - -
31/06:30am 19.2 ENE 5 7 1017.3 - 0.2 - - - - - - -
31/06:00am 17.9 NE 4 4 1017.5 - 0.2 - - - - - - -
31/05:30am 17.4 E 4 5 1017.4 - 0.2 - - - - - - -
31/05:00am 17.9 E 4 5 1017.3 - 0.2 - - - - - - -
31/04:30am 18.5 ESE 5 6 1017.3 - 0.2 - - - - - - -
31/04:00am 18.3 SE 5 6 1017.1 - 0.2 - - - - - - -
31/03:30am 18.2 S 3 6 1017.0 - 0.2 - - - - - - -
31/03:00am 18.0 ENE 1 4 1017.1 - 0.2 - - - - - - -
31/02:30am 18.1 ENE 4 7 1017.3 - 0.2 - - - - - - -
31/02:00am 17.9 ENE 4 7 1017.8 - 0.2 - - - - - - -
31/01:30am 17.9 E 4 6 1018.2 - 0.2 - - - - - - -
31/01:00am 18.3 E 5 6 1018.5 - 0.2 - - - - - - -
31/12:30am 18.5 E 5 7 1018.8 - 0.2 - - - - - - -
31/12:00am 18.6 ESE 4 7 1019.1 - 0.2 - - - - - - -
 
Date/Time
WST
Temp

°C
Wind Pressure Rain
since 9am
mm
Weather Cloud Vis
km
Sea
Height
m
Swell
Dir
 
Speed
knots
Gust
knots
hPa Trend Height
m
Period
s
Dir
30/11:30pm 18.7 E 6 8 1019.4 - 0.2 - - - - - - -
30/11:00pm 18.6 ESE 5 7 1019.5 - 0.2 - - - - - - -
30/10:30pm 18.7 E 7 12 1019.6 - 0.2 - - - - - - -
30/10:00pm 18.7 ESE 6 9 1020.1 - 0.2 - - - - - - -
30/09:30pm 18.7 E 7 10 1020.4 - 0.2 - - - - - - -
30/09:00pm 18.6 E 7 10 1020.5 - 0.2 - - - - - - -
30/08:30pm 18.7 ESE 7 10 1020.6 - 0.2 - - - - - - -
30/08:00pm 18.7 ESE 7 10 1020.8 - 0.2 - - - - - - -
30/07:30pm 18.7 E 8 11 1020.8 - 0.2 - - - - - - -
30/07:00pm 18.9 ESE 8 10 1020.7 - 0.2 - - - - - - -
30/06:30pm 18.9 ESE 8 12 1020.3 - 0.2 - - - - - - -
30/06:00pm 19.2 ESE 7 10 1020.2 - 0.2 - - - - - - -
30/05:30pm 19.4 ESE 8 13 1019.7 - 0.2 - - - - - - -
30/05:00pm 19.7 ESE 9 14 1019.6 - 0.2 - - - - - - -
30/04:30pm 20.2 ESE 11 16 1019.7 - 0.2 - - - - - - -
30/04:00pm 20.9 ESE 9 15 1019.6 - 0.2 - - - - - - -
30/03:30pm 21.2 ESE 11 17 1019.4 - 0.2 - - - - - - -
30/03:00pm 21.6 SE 11 16 1019.6 - 0.2 Fine Mostly clear 40 - - - -
30/02:30pm 22.4 ESE 10 15 1019.6 - 0.2 - - - - - - -
30/02:00pm 23.0 SE 9 16 1020.0 - 0.2 - - - - - - -
30/01:30pm 23.1 SE 10 15 1020.2 - 0.2 - - - - - - -
30/01:00pm 22.9 ESE 9 14 1020.6 - 0.2 - - - - - - -
30/12:30pm 23.4 SE 8 12 1020.8 - 0.2 - - - - - - -
30/12:00pm 23.1 SE 9 14 1021.3 - 0.2 - - - - - - -
30/11:30am 23.3 SE 9 14 1021.7 - 0.2 - - - - - - -
30/11:00am 23.2 SE 9 11 1022.0 - 0.2 - - - - - - -
30/10:30am 23.7 SE 9 14 1022.2 - 0.2 - - - - - - -
30/10:00am 23.0 ESE 9 13 1022.3 - 0.2 - - - - - - -
30/09:30am 23.4 SE 9 13 1022.5 - 0.2 - - - - - - -
30/09:00am 22.5 SE 8 12 1022.7 - 0.0 Fine Clear 40 - - - -
30/08:30am 22.7 ENE 6 10 1022.8 - 0.0 - - - - - - -
30/08:00am 21.4 ESE 7 9 1022.9 - 0.0 - - - - - - -
30/07:30am 20.7 ESE 7 9 1022.8 - 0.0 - - - - - - -
30/07:00am 20.1 E 5 7 1022.8 - 0.0 - - - - - - -
30/06:30am 18.7 E 5 7 1022.4 - 0.0 - - - - - - -
30/06:00am 17.3 E 5 6 1022.1 - 0.0 - - - - - - -
30/05:30am 16.9 E 5 6 1022.0 - 0.0 - - - - - - -
30/05:00am 17.4 ESE 5 6 1021.7 - 0.0 - - - - - - -
30/04:30am 17.5 ESE 5 6 1021.5 - 0.0 - - - - - - -
30/04:00am 17.5 ESE 5 6 1021.3 - 0.0 - - - - - - -
30/03:30am 17.4 ESE 5 7 1021.1 - 0.0 - - - - - - -
30/03:00am 17.1 ESE 5 6 1021.2 - 0.0 - - - - - - -
30/02:30am 16.8 E 5 6 1021.3 - 0.0 - - - - - - -
30/02:00am 16.8 E 4 5 1021.4 - 0.0 - - - - - - -
30/01:30am 17.5 E 5 6 1021.5 - 0.0 - - - - - - -
30/01:00am 17.8 E 5 6 1021.8 - 0.0 - - - - - - -
30/12:30am 17.9 E 5 7 1022.0 - 0.0 - - - - - - -
30/12:00am 17.9 E 5 7 1022.2 - 0.0 - - - - - - -
 
Date/Time
WST
Temp

°C
Wind Pressure Rain
since 9am
mm
Weather Cloud Vis
km
Sea
Height
m
Swell
Dir
 
Speed
knots
Gust
knots
hPa Trend Height
m
Period
s
Dir
29/11:30pm 17.9 ESE 5 6 1022.3 - 0.0 - - - - - - -
29/11:00pm 17.7 ESE 5 6 1022.4 - 0.0 - - - - - - -
29/10:30pm 18.0 ESE 5 7 1022.3 - 0.0 - - - - - - -
29/10:00pm 17.9 ESE 5 7 1022.6 - 0.0 - - - - - - -
29/09:30pm 18.0 SE 6 7 1022.8 - 0.0 - - - - - - -
29/09:00pm 18.2 SE 6 8 1022.6 - 0.0 - - - - - - -
29/08:30pm 18.3 SE 7 9 1022.9 - 0.0 - - - - - - -
29/08:00pm 18.3 SE 7 10 1022.8 - 0.0 - - - - - - -
29/07:30pm 18.6 SE 8 12 1022.6 - 0.0 - - - - - - -
29/07:00pm 18.7 SSE 7 10 1022.4 - 0.0 - - - - - - -
29/06:30pm 18.9 SSE 8 11 1022.3 - 0.0 - - - - - - -
29/06:00pm 18.9 SSE 8 12 1021.8 - 0.0 - - - - - - -
29/05:30pm 19.3 SSE 8 11 1021.8 - 0.0 - - - - - - -
29/05:00pm 20.0 SSE 8 13 1021.5 - 0.0 - - - - - - -
29/04:30pm 20.6 SSE 9 14 1021.2 - 0.0 - - - - - - -
29/04:00pm 21.4 SE 9 13 1021.1 - 0.0 - - - - - - -
29/03:30pm 21.8 SSE 8 11 1021.1 - 0.0 - - - - - - -
29/03:00pm 22.0 SE 8 12 1021.1 - 0.0 Fine Mostly clear 40 - - - -
29/02:30pm 22.6 SE 8 12 1020.9 - 0.0 - - - - - - -
29/02:00pm 22.6 SE 9 14 1020.6 - 0.0 - - - - - - -
29/01:30pm 23.0 SE 9 13 1020.7 - 0.0 - - - - - - -
29/01:00pm 22.9 SE 7 11 1020.9 - 0.0 - - - - - - -
29/12:30pm 22.9 SE 7 11 1021.3 - 0.0 - - - - - - -
29/12:00pm 23.0 SE 8 11 1021.6 - 0.0 - - - - - - -
29/11:30am 22.4 SE 7 10 1022.0 - 0.0 - - - - - - -
29/11:00am 22.8 SE 7 12 1022.4 - 0.0 - - - - - - -
29/10:30am 22.6 SE 7 10 1022.5 - 0.0 - - - - - - -
29/10:00am 22.1 SE 7 10 1022.5 - 0.0 - - - - - - -
29/09:30am 21.3 SE 6 8 1022.8 - 0.0 - - - - - - -
29/09:00am 21.3 SE 7 9 1022.8 - 2.2 Fine Mostly clear 40 - - - -
29/08:30am 21.4 SE 5 8 1022.7 - 2.2 - - - - - - -
29/08:00am 20.7 SE 6 8 1022.6 - 2.2 - - - - - - -
29/07:30am 20.2 ESE 5 6 1022.3 - 2.2 - - - - - - -
29/07:00am 18.5 ENE 4 5 1021.9 - 2.2 - - - - - - -
29/06:30am 16.7 ENE 4 5 1021.6 - 2.2 - - - - - - -
29/06:00am 14.9 E 4 4 1021.3 - 2.2 - - - - - - -
29/05:30am 15.2 E 3 4 1020.9 - 2.2 - - - - - - -
29/05:00am 15.6 E 4 5 1020.6 - 2.2 - - - - - - -
29/04:30am 15.9 E 5 5 1020.2 - 2.2 - - - - - - -
29/04:00am 16.1 SE 5 6 1019.9 - 2.2 - - - - - - -
29/03:30am 15.9 E 5 6 1019.7 - 2.2 - - - - - - -
29/03:00am 15.4 ENE 4 5 1019.6 - 2.2 - - - - - - -
29/02:30am 15.5 NE 5 6 1019.4 - 2.2 - - - - - - -
29/02:00am 15.8 NE 6 6 1019.4 - 2.2 - - - - - - -
29/01:30am 15.9 NE 5 6 1019.5 - 2.0 - - - - - - -
29/01:00am 15.6 E 5 6 1019.6 - 2.0 - - - - - - -
29/12:30am 15.4 SSE 2 4 1019.8 - 2.0 - - - - - - -
29/12:00am 15.7 SSW 5 5 1020.1 - 1.8 - - - - - - -
 
Date/Time
WST
Temp

°C
Wind Pressure Rain
since 9am
mm
Weather Cloud Vis
km
Sea
Height
m
Swell
Dir
 
Speed
knots
Gust
knots
hPa Trend Height
m
Period
s
Dir
28/11:30pm 15.3 SSW 4 5 1020.1 - 1.8 - - - - - - -
28/11:00pm 16.2 SSE 5 5 1020.1 - 1.8 - - - - - - -
28/10:30pm 15.9 S 6 7 1020.3 - 1.8 - - - - - - -
28/10:00pm 16.1 SSW 4 9 1020.3 - 1.8 - - - - - - -
28/09:30pm 16.1 N 6 7 1020.0 - 1.8 - - - - - - -
28/09:00pm 16.4 NNE 8 13 1019.6 - 1.8 - - - - - - -
28/08:30pm 15.8 N 8 9 1019.9 - 1.8 - - - - - - -
28/08:00pm 15.9 N 7 9 1019.9 - 1.8 - - - - - - -
28/07:30pm 15.9 NNE 8 11 1019.4 - 1.8 - - - - - - -
28/07:00pm 16.7 NNE 8 12 1019.6 - 1.8 - - - - - - -
28/06:30pm 17.3 ENE 5 6 1019.7 - 1.8 - - - - - - -
28/06:00pm 17.6 SSE 4 6 1020.1 - 1.6 Rain - - - - - -
28/05:30pm 17.6 E 6 9 1019.5 - 1.4 - - - - - - -
28/05:00pm 17.8 SE 7 10 1019.4 - 1.4 - - - - - - -
28/04:30pm 18.5 ESE 7 10 1018.6 - 0.2 - - - - - - -
28/04:00pm 18.9 ESE 7 11 1018.4 - 0.2 - - - - - - -
28/03:30pm 19.0 SE 7 11 1018.2 - 0.2 - - - - - - -
28/03:00pm 19.3 SE 8 11 1018.4 - 0.2 Fine Cloudy 40 - - - -
28/02:30pm 21.1 N 6 9 1018.1 - 0.2 - - - - - - -
28/02:00pm 22.5 N 7 9 1018.1 - 0.2 - - - - - - -
28/01:30pm 22.2 N 8 12 1018.8 - 0.2 - - - - - - -
28/01:00pm 22.5 NNW 6 10 1018.9 - 0.2 - - - - - - -
28/12:30pm 20.9 NNW 5 7 1019.3 - 0.2 - - - - - - -
28/12:00pm 20.3 N 5 7 1019.9 - 0.0 - - - - - - -
28/11:30am 19.1 NNW 4 6 1020.1 - 0.0 - - - - - - -
28/11:00am 19.0 NNW 7 10 1020.7 - 0.0 - - - - - - -
28/10:30am 18.1 N 7 10 1020.6 - 0.0 - - - - - - -
28/10:00am 16.7 N 6 8 1020.9 - 0.0 - - - - - - -
28/09:30am 15.6 N 8 12 1020.9 - 0.0 - - - - - - -
28/09:00am 14.7 NNE 9 14 1020.8 - 4.4 Drizzle Cloudy 15 - - - -
28/08:30am 14.0 N 9 14 1020.9 - 4.4 - - - - - - -

Other Formats:

Comma delimited format used in spreadsheet applications
http://www.bom.gov.au/fwo/IDW60701/IDW60701.94647.axf

JavaScript Object Notation format (JSON) in row-major order
http://www.bom.gov.au/fwo/IDW60701/IDW60701.94647.json